Aérodrome :
LOGIN :

S'inscrire | Disclaimer

   EN    FR    IT 

 










Légende :    VFR   VFR Marginal   IFR   IFR Intensif   IFR Très Intensif
Visi : 
Plafond : 
>= 8 km
>= 3000ft
5 à 8 km
1000 à 3000 ft
1500m à 5 km
500 à 1000 ft
800 à 1500m
200 à 500 ft
< 800m
< 200 ft
Symboles :   Orages  Brouillard  Fortes neiges  Fortes précipitations  Vent > 20 kt
SIGMETs :   Divers  Orages  Givrage  Turbulence  Onde Orograph.  Cendres Volcan.






- Altitude de l'aérodrome : 1071 ft
- Code IATA : LWO


UKLL - L'viv

DERNIER METAR :
  • 230655Z 00000MPS 1200 1000NW R31/1500U BR NSC 11/11 Q1023 R31/CLRD// NOSIG

METARs EXPIRÉS :
  • 230646Z 00000MPS 0800 R31/0900U FG NSC 11/11 Q1023 R31/CLRD// NOSIG
  • 230636Z 00000MPS 0200 0150S R31/0300U FG NSC 11/11 Q1023 R31/CLRD// NOSIG
  • 230630Z 00000MPS 0100 R13/0150N FG VV001 10/10 Q1023 R13/CLRD// NOSIG
  • 230600Z 00000MPS 0050 R13/0100N FG VV001 08/08 Q1023 R13/CLRD// NOSIG
  • 230530Z 00000MPS 0050 R13/0100N FG VV001 07/07 Q1023 R13/CLRD// NOSIG
  • 230500Z 00000MPS 0050 R13/0100N FG VV001 06/06 Q1023 R13/CLRD// NOSIG
  • 230438Z 00000MPS 0050 R13/0100N FG VV001 06/06 Q1023 R13/CLRD// NOSIG
  • 230433Z 00000MPS 0050 R13/0100N FG VV003 06/06 Q1023 R13/CLRD// NOSIG
  • 230424Z 00000MPS 0050 R13/0200N FG NSC 06/06 Q1023 R13/CLRD// NOSIG

TAF TAF UKLL
Valide du 23 à 06h jusqu'au 24 à 06h UTC


230503Z 2306/2406 VRB01MPS 0200 FG VV001
TEMPO 2306/2309 1500 BR BKN005
BECMG 2309/2311 9999 NSW SCT025
BECMG 2315/2317 15003MPS 3000 BR BKN007
TEMPO 2317/2406 0300 FG VV001



MET'MAP, la Météo Aéronautique d'un coup d'oeil ! - Copyright ORBIFLY Décembre 2007 - Disclaimer

ORBIFLY MET'MAP TEAM :

Programmation & Développement : Alexandra Zaïnal
Conception & Développement : Baudouin d'Aumeries
Co-Programmation & Développement : Marc-Olivier Méhu
Soutien technique & logistique : Manuel Goepfert

Contact : metmap@orbifly.com




SOURCES & CREDITS :

   NOAA